sensor_id;sensor_type;location;lat;lon;timestamp;pressure;altitude;pressure_sealevel;temperature;humidity
28921;BME280;16035;53.594;9.952;2022-10-16T00:01:37;100819.69;;;15.87;71.93
28921;BME280;16035;53.594;9.952;2022-10-16T00:03:39;100824.66;;;15.85;72.02
28921;BME280;16035;53.594;9.952;2022-10-16T00:05:40;100819.22;;;15.80;72.00
28921;BME280;16035;53.594;9.952;2022-10-16T00:07:41;100820.88;;;15.81;72.07
28921;BME280;16035;53.594;9.952;2022-10-16T00:09:41;100821.69;;;15.81;71.88
28921;BME280;16035;53.594;9.952;2022-10-16T00:11:42;100829.38;;;15.79;71.85
28921;BME280;16035;53.594;9.952;2022-10-16T00:13:43;100828.06;;;15.77;71.90
28921;BME280;16035;53.594;9.952;2022-10-16T00:15:44;100827.25;;;15.76;71.74
28921;BME280;16035;53.594;9.952;2022-10-16T00:17:46;100825.03;;;15.78;72.02
28921;BME280;16035;53.594;9.952;2022-10-16T00:19:46;100826.94;;;15.78;71.65
28921;BME280;16035;53.594;9.952;2022-10-16T00:21:47;100828.06;;;15.77;71.78
28921;BME280;16035;53.594;9.952;2022-10-16T00:23:54;100824.50;;;15.76;71.71
28921;BME280;16035;53.594;9.952;2022-10-16T00:25:59;100826.41;;;15.76;71.97
28921;BME280;16035;53.594;9.952;2022-10-16T00:28:00;100827.81;;;15.73;71.70
28921;BME280;16035;53.594;9.952;2022-10-16T00:30:01;100830.25;;;15.75;71.85
28921;BME280;16035;53.594;9.952;2022-10-16T00:32:01;100830.56;;;15.73;71.94
28921;BME280;16035;53.594;9.952;2022-10-16T00:34:01;100827.28;;;15.71;71.78
28921;BME280;16035;53.594;9.952;2022-10-16T00:36:03;100832.75;;;15.71;71.70
28921;BME280;16035;53.594;9.952;2022-10-16T00:38:03;100840.47;;;15.69;71.58
28921;BME280;16035;53.594;9.952;2022-10-16T00:40:04;100841.28;;;15.70;71.53
28921;BME280;16035;53.594;9.952;2022-10-16T00:42:04;100831.97;;;15.71;71.69
28921;BME280;16035;53.594;9.952;2022-10-16T00:44:42;100839.09;;;15.72;71.63
28921;BME280;16035;53.594;9.952;2022-10-16T00:46:42;100843.72;;;15.71;71.43
28921;BME280;16035;53.594;9.952;2022-10-16T00:48:48;100842.72;;;15.67;71.47
28921;BME280;16035;53.594;9.952;2022-10-16T00:50:50;100850.94;;;15.67;71.54
28921;BME280;16035;53.594;9.952;2022-10-16T00:52:51;100845.72;;;15.65;71.62
28921;BME280;16035;53.594;9.952;2022-10-16T00:54:53;100845.72;;;15.65;71.52
28921;BME280;16035;53.594;9.952;2022-10-16T00:56:55;100845.72;;;15.65;71.26
28921;BME280;16035;53.594;9.952;2022-10-16T00:58:57;100846.25;;;15.68;71.33
28921;BME280;16035;53.594;9.952;2022-10-16T01:00:59;100851.44;;;15.69;71.50
28921;BME280;16035;53.594;9.952;2022-10-16T01:03:01;100843.78;;;15.66;71.09
28921;BME280;16035;53.594;9.952;2022-10-16T01:05:02;100853.13;;;15.65;71.36
28921;BME280;16035;53.594;9.952;2022-10-16T01:11:34;100869.66;;;15.55;70.63
28921;BME280;16035;53.594;9.952;2022-10-16T01:13:41;100859.28;;;15.52;71.00
28921;BME280;16035;53.594;9.952;2022-10-16T01:17:58;100869.13;;;15.53;70.83
28921;BME280;16035;53.594;9.952;2022-10-16T01:20:11;100869.72;;;15.50;70.71
28921;BME280;16035;53.594;9.952;2022-10-16T01:22:14;100873.28;;;15.50;70.40
28921;BME280;16035;53.594;9.952;2022-10-16T01:26:52;100867.56;;;15.47;70.33
28921;BME280;16035;53.594;9.952;2022-10-16T01:28:57;100876.06;;;15.45;70.28
28921;BME280;16035;53.594;9.952;2022-10-16T01:31:02;100871.16;;;15.42;70.28
28921;BME280;16035;53.594;9.952;2022-10-16T01:33:10;100875.81;;;15.41;70.38
28921;BME280;16035;53.594;9.952;2022-10-16T01:35:18;100881.06;;;15.38;70.76
28921;BME280;16035;53.594;9.952;2022-10-16T01:37:29;100872.34;;;15.36;70.44
28921;BME280;16035;53.594;9.952;2022-10-16T01:39:35;100875.63;;;15.33;70.47
28921;BME280;16035;53.594;9.952;2022-10-16T01:41:41;100861.94;;;15.33;70.74
28921;BME280;16035;53.594;9.952;2022-10-16T01:43:50;100872.91;;;15.33;70.40
28921;BME280;16035;53.594;9.952;2022-10-16T01:45:53;100872.91;;;15.33;70.49
28921;BME280;16035;53.594;9.952;2022-10-16T01:47:54;100869.34;;;15.32;70.41
28921;BME280;16035;53.594;9.952;2022-10-16T01:49:56;100875.94;;;15.31;70.20
28921;BME280;16035;53.594;9.952;2022-10-16T01:51:59;100866.88;;;15.31;70.12
28921;BME280;16035;53.594;9.952;2022-10-16T01:54:04;100869.41;;;15.27;70.13
28921;BME280;16035;53.594;9.952;2022-10-16T01:56:09;100872.41;;;15.26;70.21
28921;BME280;16035;53.594;9.952;2022-10-16T01:58:12;100888.84;;;15.26;70.05
28921;BME280;16035;53.594;9.952;2022-10-16T02:00:14;100878.50;;;15.23;70.15
28921;BME280;16035;53.594;9.952;2022-10-16T02:02:19;100876.25;;;15.25;70.05
28921;BME280;16035;53.594;9.952;2022-10-16T02:04:32;100870.28;;;15.23;70.22
28921;BME280;16035;53.594;9.952;2022-10-16T02:06:34;100871.09;;;15.23;69.84
28921;BME280;16035;53.594;9.952;2022-10-16T02:08:36;100883.97;;;15.23;69.93
28921;BME280;16035;53.594;9.952;2022-10-16T02:10:37;100884.78;;;15.23;70.12
28921;BME280;16035;53.594;9.952;2022-10-16T02:12:41;100878.75;;;15.21;70.00
28921;BME280;16035;53.594;9.952;2022-10-16T02:14:44;100881.22;;;15.23;69.64
28921;BME280;16035;53.594;9.952;2022-10-16T02:16:46;100873.56;;;15.20;69.58
28921;BME280;16035;53.594;9.952;2022-10-16T02:18:46;100884.81;;;15.18;69.70
28921;BME280;16035;53.594;9.952;2022-10-16T02:20:59;100878.03;;;15.10;69.72
28921;BME280;16035;53.594;9.952;2022-10-16T02:23:00;100876.41;;;15.09;69.66
28921;BME280;16035;53.594;9.952;2022-10-16T02:25:15;100877.81;;;15.07;69.82
28921;BME280;16035;53.594;9.952;2022-10-16T02:29:25;100881.09;;;15.04;69.56
28921;BME280;16035;53.594;9.952;2022-10-16T02:31:28;100885.25;;;15.01;69.65
28921;BME280;16035;53.594;9.952;2022-10-16T02:33:31;100884.44;;;15.01;69.78
28921;BME280;16035;53.594;9.952;2022-10-16T02:35:34;100887.16;;;15.01;69.65
28921;BME280;16035;53.594;9.952;2022-10-16T02:37:35;100886.88;;;15.02;69.53
28921;BME280;16035;53.594;9.952;2022-10-16T02:39:38;100883.88;;;14.99;69.67
28921;BME280;16035;53.594;9.952;2022-10-16T02:41:39;100877.03;;;15.01;69.84
28921;BME280;16035;53.594;9.952;2022-10-16T02:43:39;100877.03;;;15.01;69.50
28921;BME280;16035;53.594;9.952;2022-10-16T02:45:39;100887.44;;;14.99;69.23
28921;BME280;16035;53.594;9.952;2022-10-16T02:47:40;100889.34;;;14.99;69.43
28921;BME280;16035;53.594;9.952;2022-10-16T02:49:40;100888.03;;;14.96;69.56
28921;BME280;16035;53.594;9.952;2022-10-16T02:51:41;100879.28;;;14.94;69.98
28921;BME280;16035;53.594;9.952;2022-10-16T02:53:41;100881.19;;;14.94;69.58
28921;BME280;16035;53.594;9.952;2022-10-16T02:55:41;100887.25;;;14.90;69.52
28921;BME280;16035;53.594;9.952;2022-10-16T02:57:42;100885.91;;;14.88;69.54
28921;BME280;16035;53.594;9.952;2022-10-16T02:59:42;100885.34;;;14.86;69.51
28921;BME280;16035;53.594;9.952;2022-10-16T03:01:42;100875.78;;;14.88;69.98
28921;BME280;16035;53.594;9.952;2022-10-16T03:03:43;100884.78;;;14.89;69.53
28921;BME280;16035;53.594;9.952;2022-10-16T03:05:44;100879.88;;;14.86;69.33
28921;BME280;16035;53.594;9.952;2022-10-16T03:07:45;100880.19;;;14.84;69.43
28921;BME280;16035;53.594;9.952;2022-10-16T03:09:46;100883.72;;;14.85;69.44
28921;BME280;16035;53.594;9.952;2022-10-16T03:11:46;100867.06;;;14.81;69.74
28921;BME280;16035;53.594;9.952;2022-10-16T03:13:46;100873.34;;;14.82;69.83
28921;BME280;16035;53.594;9.952;2022-10-16T03:15:47;100869.00;;;14.81;69.66
28921;BME280;16035;53.594;9.952;2022-10-16T03:17:47;100873.13;;;14.78;69.69
28921;BME280;16035;53.594;9.952;2022-10-16T03:19:48;100879.16;;;14.75;69.89
28921;BME280;16035;53.594;9.952;2022-10-16T03:21:48;100874.81;;;14.74;69.81
28921;BME280;16035;53.594;9.952;2022-10-16T03:23:49;100875.88;;;14.73;69.86
28921;BME280;16035;53.594;9.952;2022-10-16T03:25:49;100872.34;;;14.73;69.51
28921;BME280;16035;53.594;9.952;2022-10-16T03:27:49;100872.06;;;14.74;69.50
28921;BME280;16035;53.594;9.952;2022-10-16T03:29:50;100879.16;;;14.75;69.63
28921;BME280;16035;53.594;9.952;2022-10-16T03:31:50;100875.06;;;14.73;69.76
28921;BME280;16035;53.594;9.952;2022-10-16T03:33:50;100881.09;;;14.75;69.31
28921;BME280;16035;53.594;9.952;2022-10-16T03:35:54;100884.94;;;14.74;69.40
28921;BME280;16035;53.594;9.952;2022-10-16T03:37:55;100883.81;;;14.75;69.48
28921;BME280;16035;53.594;9.952;2022-10-16T03:39:55;100884.94;;;14.74;69.41
28921;BME280;16035;53.594;9.952;2022-10-16T03:41:55;100880.28;;;14.74;69.08
28921;BME280;16035;53.594;9.952;2022-10-16T03:43:56;100877.81;;;14.73;69.46
28921;BME280;16035;53.594;9.952;2022-10-16T03:45:56;100890.16;;;14.70;69.27
28921;BME280;16035;53.594;9.952;2022-10-16T03:47:56;100891.53;;;14.68;69.43
28921;BME280;16035;53.594;9.952;2022-10-16T03:49:57;100889.09;;;14.66;69.36
28921;BME280;16035;53.594;9.952;2022-10-16T03:51:57;100885.25;;;14.67;69.37
28921;BME280;16035;53.594;9.952;2022-10-16T03:53:57;100884.94;;;14.69;69.51
28921;BME280;16035;53.594;9.952;2022-10-16T03:55:57;100882.19;;;14.69;69.68
28921;BME280;16035;53.594;9.952;2022-10-16T03:57:58;100882.78;;;14.65;69.63
28921;BME280;16035;53.594;9.952;2022-10-16T03:59:59;100891.53;;;14.68;69.81
28921;BME280;16035;53.594;9.952;2022-10-16T04:01:59;100888.53;;;14.64;69.76
28921;BME280;16035;53.594;9.952;2022-10-16T04:03:59;100888.28;;;14.65;69.53
28921;BME280;16035;53.594;9.952;2022-10-16T04:05:59;100897.28;;;14.66;69.48
28921;BME280;16035;53.594;9.952;2022-10-16T04:08:00;100904.13;;;14.63;69.32
28921;BME280;16035;53.594;9.952;2022-10-16T04:10:00;100916.19;;;14.62;69.26
28921;BME280;16035;53.594;9.952;2022-10-16T04:12:00;100914.56;;;14.61;69.41
28921;BME280;16035;53.594;9.952;2022-10-16T04:14:01;100920.84;;;14.62;69.33
28921;BME280;16035;53.594;9.952;2022-10-16T04:16:01;100916.72;;;14.59;69.49
28921;BME280;16035;53.594;9.952;2022-10-16T04:18:02;100924.41;;;14.57;69.38
28921;BME280;16035;53.594;9.952;2022-10-16T04:20:03;100924.16;;;14.54;69.08
28921;BME280;16035;53.594;9.952;2022-10-16T04:22:04;100919.25;;;14.51;69.06
28921;BME280;16035;53.594;9.952;2022-10-16T04:24:04;100923.63;;;14.52;69.10
28921;BME280;16035;53.594;9.952;2022-10-16T04:26:05;100921.72;;;14.52;69.53
28921;BME280;16035;53.594;9.952;2022-10-16T04:28:05;100926.38;;;14.52;69.65
28921;BME280;16035;53.594;9.952;2022-10-16T04:30:06;100930.19;;;14.51;69.14
28921;BME280;16035;53.594;9.952;2022-10-16T04:32:08;100926.63;;;14.50;69.47
28921;BME280;16035;53.594;9.952;2022-10-16T04:34:08;100923.09;;;14.50;69.27
28921;BME280;16035;53.594;9.952;2022-10-16T04:36:09;100929.94;;;14.47;69.43
28921;BME280;16035;53.594;9.952;2022-10-16T04:38:09;100930.47;;;14.44;69.46
28921;BME280;16035;53.594;9.952;2022-10-16T04:40:10;100929.13;;;14.47;69.09
28921;BME280;16035;53.594;9.952;2022-10-16T04:42:11;100946.34;;;14.47;69.35
28921;BME280;16035;53.594;9.952;2022-10-16T04:44:11;100941.13;;;14.46;69.47
28921;BME280;16035;53.594;9.952;2022-10-16T04:46:12;100953.72;;;14.47;69.60
28921;BME280;16035;53.594;9.952;2022-10-16T04:48:12;100946.88;;;14.44;69.14
28921;BME280;16035;53.594;9.952;2022-10-16T04:50:12;100950.72;;;14.43;68.95
28921;BME280;16035;53.594;9.952;2022-10-16T04:52:13;100954.56;;;14.42;69.48
28921;BME280;16035;53.594;9.952;2022-10-16T04:54:13;100955.38;;;14.43;69.32
28921;BME280;16035;53.594;9.952;2022-10-16T04:56:13;100951.28;;;14.40;69.26
28921;BME280;16035;53.594;9.952;2022-10-16T04:58:15;100953.50;;;14.38;69.39
28921;BME280;16035;53.594;9.952;2022-10-16T05:00:15;100954.31;;;14.38;69.08
28921;BME280;16035;53.594;9.952;2022-10-16T05:02:15;100958.66;;;14.39;69.76
28921;BME280;16035;53.594;9.952;2022-10-16T05:04:16;100957.56;;;14.40;69.25
28921;BME280;16035;53.594;9.952;2022-10-16T05:06:16;100958.97;;;14.38;69.48
28921;BME280;16035;53.594;9.952;2022-10-16T05:08:16;100951.56;;;14.38;69.64
28921;BME280;16035;53.594;9.952;2022-10-16T05:10:17;100958.97;;;14.38;69.33
28921;BME280;16035;53.594;9.952;2022-10-16T05:12:18;100955.94;;;14.39;69.59
28921;BME280;16035;53.594;9.952;2022-10-16T05:14:18;100970.72;;;14.38;69.45
28921;BME280;16035;53.594;9.952;2022-10-16T05:16:18;100964.69;;;14.36;69.57
28921;BME280;16035;53.594;9.952;2022-10-16T05:18:19;100969.34;;;14.36;69.96
28921;BME280;16035;53.594;9.952;2022-10-16T05:20:19;100973.69;;;14.37;69.25
28921;BME280;16035;53.594;9.952;2022-10-16T05:22:19;100973.69;;;14.37;69.68
28921;BME280;16035;53.594;9.952;2022-10-16T05:24:20;100975.38;;;14.38;69.36
28921;BME280;16035;53.594;9.952;2022-10-16T05:26:20;100977.25;;;14.37;69.30
28921;BME280;16035;53.594;9.952;2022-10-16T05:28:21;100969.91;;;14.38;69.61
28921;BME280;16035;53.594;9.952;2022-10-16T05:30:21;100978.66;;;14.35;69.57
28921;BME280;16035;53.594;9.952;2022-10-16T05:32:22;100980.00;;;14.32;69.61
28921;BME280;16035;53.594;9.952;2022-10-16T05:34:22;100975.38;;;14.33;69.41
28921;BME280;16035;53.594;9.952;2022-10-16T05:36:23;100981.69;;;14.33;69.92
28921;BME280;16035;53.594;9.952;2022-10-16T05:38:23;100975.38;;;14.33;69.93
28921;BME280;16035;53.594;9.952;2022-10-16T05:40:24;100977.28;;;14.32;69.73
28921;BME280;16035;53.594;9.952;2022-10-16T05:42:24;100973.47;;;14.33;69.53
28921;BME280;16035;53.594;9.952;2022-10-16T05:44:24;100974.81;;;14.36;69.73
28921;BME280;16035;53.594;9.952;2022-10-16T05:46:25;100985.75;;;14.36;69.59
28921;BME280;16035;53.594;9.952;2022-10-16T05:48:26;100981.69;;;14.33;69.75
28921;BME280;16035;53.594;9.952;2022-10-16T05:50:27;100978.66;;;14.35;69.58
28921;BME280;16035;53.594;9.952;2022-10-16T05:52:27;100976.19;;;14.38;69.75
28921;BME280;16035;53.594;9.952;2022-10-16T05:54:28;100980.84;;;14.38;69.96
28921;BME280;16035;53.594;9.952;2022-10-16T05:56:28;100975.59;;;14.41;69.78
28921;BME280;16035;53.594;9.952;2022-10-16T05:58:33;100982.72;;;14.43;69.83
28921;BME280;16035;53.594;9.952;2022-10-16T06:00:35;100991.75;;;14.43;69.70
28921;BME280;16035;53.594;9.952;2022-10-16T06:02:35;100989.28;;;14.47;69.64
28921;BME280;16035;53.594;9.952;2022-10-16T06:04:35;100996.91;;;14.50;69.77
28921;BME280;16035;53.594;9.952;2022-10-16T06:06:36;100998.56;;;14.51;69.68
28921;BME280;16035;53.594;9.952;2022-10-16T06:08:37;100988.97;;;14.53;69.71
28921;BME280;16035;53.594;9.952;2022-10-16T06:10:37;100987.88;;;14.54;69.75
28921;BME280;16035;53.594;9.952;2022-10-16T06:12:37;100987.34;;;14.52;69.96
28921;BME280;16035;53.594;9.952;2022-10-16T06:14:38;100980.78;;;14.53;69.63
28921;BME280;16035;53.594;9.952;2022-10-16T06:16:38;100983.22;;;14.55;69.94
28921;BME280;16035;53.594;9.952;2022-10-16T06:18:39;100993.91;;;14.56;69.68
28921;BME280;16035;53.594;9.952;2022-10-16T06:20:39;100992.50;;;14.59;69.87
28921;BME280;16035;53.594;9.952;2022-10-16T06:22:39;100995.81;;;14.56;69.92
28921;BME280;16035;53.594;9.952;2022-10-16T06:24:40;100995.53;;;14.57;70.10
28921;BME280;16035;53.594;9.952;2022-10-16T06:26:40;100998.56;;;14.56;69.89
28921;BME280;16035;53.594;9.952;2022-10-16T06:28:40;101004.03;;;14.56;70.00
28921;BME280;16035;53.594;9.952;2022-10-16T06:30:41;101000.44;;;14.55;70.00
28921;BME280;16035;53.594;9.952;2022-10-16T06:32:43;101000.19;;;14.57;69.81
28921;BME280;16035;53.594;9.952;2022-10-16T06:34:44;101004.84;;;14.56;69.81
28921;BME280;16035;53.594;9.952;2022-10-16T06:36:44;101007.00;;;14.54;69.73
28921;BME280;16035;53.594;9.952;2022-10-16T06:38:44;101001.53;;;14.59;70.18
28921;BME280;16035;53.594;9.952;2022-10-16T06:40:45;101014.34;;;14.64;70.04
28921;BME280;16035;53.594;9.952;2022-10-16T06:42:45;101011.88;;;14.68;69.98
28921;BME280;16035;53.594;9.952;2022-10-16T06:44:45;101019.19;;;14.77;70.16
28921;BME280;16035;53.594;9.952;2022-10-16T06:46:46;101015.91;;;14.80;70.00
28921;BME280;16035;53.594;9.952;2022-10-16T06:48:46;101029.84;;;14.84;69.92
28921;BME280;16035;53.594;9.952;2022-10-16T06:51:04;101027.63;;;14.86;70.07
28921;BME280;16035;53.594;9.952;2022-10-16T06:53:05;101041.03;;;14.93;69.88
28921;BME280;16035;53.594;9.952;2022-10-16T06:55:06;101039.34;;;14.97;69.85
28921;BME280;16035;53.594;9.952;2022-10-16T06:57:06;101033.28;;;15.00;69.94
28921;BME280;16035;53.594;9.952;2022-10-16T06:59:07;101038.75;;;15.05;70.19
28921;BME280;16035;53.594;9.952;2022-10-16T07:01:08;101038.97;;;15.13;70.02
28921;BME280;16035;53.594;9.952;2022-10-16T07:03:08;101035.88;;;15.25;69.87
28921;BME280;16035;53.594;9.952;2022-10-16T07:05:08;101046.78;;;15.30;69.64
28921;BME280;16035;53.594;9.952;2022-10-16T07:07:09;101053.88;;;15.36;69.90
28921;BME280;16035;53.594;9.952;2022-10-16T07:09:10;101054.66;;;15.42;69.52
28921;BME280;16035;53.594;9.952;2022-10-16T07:11:13;101057.63;;;15.46;69.48
28921;BME280;16035;53.594;9.952;2022-10-16T07:13:14;101055.16;;;15.49;69.58
28921;BME280;16035;53.594;9.952;2022-10-16T07:15:14;101056.78;;;15.50;69.46
28921;BME280;16035;53.594;9.952;2022-10-16T07:17:15;101060.03;;;15.52;69.58
28921;BME280;16035;53.594;9.952;2022-10-16T07:19:15;101058.69;;;15.50;69.34
28921;BME280;16035;53.594;9.952;2022-10-16T07:21:19;101058.41;;;15.51;69.56
28921;BME280;16035;53.594;9.952;2022-10-16T07:23:20;101068.25;;;15.52;69.29
28921;BME280;16035;53.594;9.952;2022-10-16T07:25:21;101066.09;;;15.49;69.41
28921;BME280;16035;53.594;9.952;2022-10-16T07:27:21;101060.63;;;15.44;69.29
28921;BME280;16035;53.594;9.952;2022-10-16T07:29:23;101063.72;;;15.37;69.62
28921;BME280;16035;53.594;9.952;2022-10-16T07:31:24;101078.75;;;15.40;69.46
28921;BME280;16035;53.594;9.952;2022-10-16T07:33:25;101076.59;;;15.37;69.68
28921;BME280;16035;53.594;9.952;2022-10-16T07:35:25;101088.88;;;15.39;69.78
28921;BME280;16035;53.594;9.952;2022-10-16T07:37:25;101094.31;;;15.45;70.13
28921;BME280;16035;53.594;9.952;2022-10-16T07:39:26;101101.13;;;15.52;69.79
28921;BME280;16035;53.594;9.952;2022-10-16T07:41:26;101091.78;;;15.58;69.50
28921;BME280;16035;53.594;9.952;2022-10-16T07:43:27;101095.03;;;15.65;70.00
28921;BME280;16035;53.594;9.952;2022-10-16T07:45:28;101099.59;;;15.75;69.70
28921;BME280;16035;53.594;9.952;2022-10-16T07:47:28;101100.59;;;15.84;69.80
28921;BME280;16035;53.594;9.952;2022-10-16T07:49:28;101093.19;;;15.90;69.53
28921;BME280;16035;53.594;9.952;2022-10-16T07:51:28;101097.00;;;15.94;69.15
28921;BME280;16035;53.594;9.952;2022-10-16T07:53:30;101092.84;;;15.97;69.12
28921;BME280;16035;53.594;9.952;2022-10-16T07:55:30;101099.72;;;15.94;69.32
28921;BME280;16035;53.594;9.952;2022-10-16T07:57:30;101104.09;;;15.95;69.53
28921;BME280;16035;53.594;9.952;2022-10-16T07:59:30;101109.84;;;15.93;69.23
28921;BME280;16035;53.594;9.952;2022-10-16T08:01:31;101117.84;;;15.90;69.40
28921;BME280;16035;53.594;9.952;2022-10-16T08:03:32;101119.78;;;15.89;69.39
28921;BME280;16035;53.594;9.952;2022-10-16T08:05:33;101124.19;;;15.85;69.28
28921;BME280;16035;53.594;9.952;2022-10-16T08:07:34;101123.66;;;15.83;69.39
28921;BME280;16035;53.594;9.952;2022-10-16T08:09:34;101121.72;;;15.84;69.38
28921;BME280;16035;53.594;9.952;2022-10-16T08:11:34;101118.72;;;15.80;69.28
28921;BME280;16035;53.594;9.952;2022-10-16T08:13:35;101127.25;;;15.79;69.44
28921;BME280;16035;53.594;9.952;2022-10-16T08:15:35;101123.41;;;15.80;69.25
28921;BME280;16035;53.594;9.952;2022-10-16T08:17:36;101121.72;;;15.84;69.28
28921;BME280;16035;53.594;9.952;2022-10-16T08:19:36;101131.81;;;15.88;69.05
28921;BME280;16035;53.594;9.952;2022-10-16T08:21:36;101128.25;;;15.88;68.99
28921;BME280;16035;53.594;9.952;2022-10-16T08:23:37;101129.38;;;15.87;69.23
28921;BME280;16035;53.594;9.952;2022-10-16T08:25:37;101131.78;;;15.93;69.63
28921;BME280;16035;53.594;9.952;2022-10-16T08:27:38;101135.25;;;16.04;69.30
28921;BME280;16035;53.594;9.952;2022-10-16T08:29:38;101129.38;;;16.16;69.23
28921;BME280;16035;53.594;9.952;2022-10-16T08:31:38;101125.94;;;16.29;69.03
28921;BME280;16035;53.594;9.952;2022-10-16T08:33:41;101131.06;;;16.41;68.78
28921;BME280;16035;53.594;9.952;2022-10-16T08:35:42;101139.22;;;16.46;68.67
28921;BME280;16035;53.594;9.952;2022-10-16T08:37:42;101125.44;;;16.51;68.77
28921;BME280;16035;53.594;9.952;2022-10-16T08:39:43;101136.66;;;16.55;68.56
28921;BME280;16035;53.594;9.952;2022-10-16T08:47:08;101129.72;;;16.62;68.64
28921;BME280;16035;53.594;9.952;2022-10-16T08:49:13;101142.56;;;16.67;68.22
28921;BME280;16035;53.594;9.952;2022-10-16T08:51:24;101132.78;;;16.61;68.18
28921;BME280;16035;53.594;9.952;2022-10-16T08:53:33;101149.75;;;16.63;68.15
28921;BME280;16035;53.594;9.952;2022-10-16T08:55:43;101145.19;;;16.53;68.18
28921;BME280;16035;53.594;9.952;2022-10-16T08:57:45;101150.56;;;16.63;68.31
28921;BME280;16035;53.594;9.952;2022-10-16T08:59:45;101149.94;;;16.72;68.23
28921;BME280;16035;53.594;9.952;2022-10-16T09:01:49;101157.31;;;16.76;68.20
28921;BME280;16035;53.594;9.952;2022-10-16T09:04:24;101162.97;;;16.85;68.06
28921;BME280;16035;53.594;9.952;2022-10-16T09:06:41;101165.41;;;16.86;68.08
28921;BME280;16035;53.594;9.952;2022-10-16T09:08:57;101167.81;;;16.93;67.87
28921;BME280;16035;53.594;9.952;2022-10-16T09:11:30;101162.84;;;16.95;67.76
28921;BME280;16035;53.594;9.952;2022-10-16T09:20:26;101166.47;;;17.33;67.90
28921;BME280;16035;53.594;9.952;2022-10-16T09:22:28;101169.91;;;18.14;66.76
28921;BME280;16035;53.594;9.952;2022-10-16T09:24:31;101180.19;;;18.55;65.45
28921;BME280;16035;53.594;9.952;2022-10-16T09:26:31;101188.34;;;18.60;64.58
28921;BME280;16035;53.594;9.952;2022-10-16T09:28:32;101185.97;;;18.40;64.64
28921;BME280;16035;53.594;9.952;2022-10-16T09:30:32;101185.16;;;18.39;65.11
28921;BME280;16035;53.594;9.952;2022-10-16T09:32:32;101183.34;;;18.49;65.32
28921;BME280;16035;53.594;9.952;2022-10-16T09:34:36;101188.22;;;18.52;64.91
28921;BME280;16035;53.594;9.952;2022-10-16T09:36:43;101181.09;;;18.51;64.54
28921;BME280;16035;53.594;9.952;2022-10-16T09:38:45;101186.50;;;18.56;64.18
28921;BME280;16035;53.594;9.952;2022-10-16T09:40:45;101188.38;;;18.74;64.05
28921;BME280;16035;53.594;9.952;2022-10-16T09:42:45;101174.00;;;18.77;63.64
28921;BME280;16035;53.594;9.952;2022-10-16T09:44:52;101178.72;;;18.77;63.70
28921;BME280;16035;53.594;9.952;2022-10-16T09:47:04;101179.53;;;18.77;62.94
28921;BME280;16035;53.594;9.952;2022-10-16T09:49:22;101175.41;;;18.61;63.14
28921;BME280;16035;53.594;9.952;2022-10-16T09:51:28;101197.13;;;18.62;63.31
28921;BME280;16035;53.594;9.952;2022-10-16T09:54:02;101190.28;;;18.60;62.59
28921;BME280;16035;53.594;9.952;2022-10-16T09:56:22;101189.75;;;18.44;61.87
28921;BME280;16035;53.594;9.952;2022-10-16T09:58:23;101204.59;;;18.29;62.76
28921;BME280;16035;53.594;9.952;2022-10-16T10:00:24;101215.69;;;18.24;63.52
28921;BME280;16035;53.594;9.952;2022-10-16T10:02:36;101214.28;;;18.27;63.42
28921;BME280;16035;53.594;9.952;2022-10-16T10:04:47;101215.09;;;18.27;63.26
28921;BME280;16035;53.594;9.952;2022-10-16T10:06:50;101218.09;;;18.44;63.92
28921;BME280;16035;53.594;9.952;2022-10-16T10:08:54;101217.22;;;18.63;63.40
28921;BME280;16035;53.594;9.952;2022-10-16T10:10:55;101210.25;;;18.65;62.97
28921;BME280;16035;53.594;9.952;2022-10-16T10:12:56;101224.81;;;18.71;63.16
28921;BME280;16035;53.594;9.952;2022-10-16T10:14:58;101225.84;;;19.03;62.98
28921;BME280;16035;53.594;9.952;2022-10-16T10:19:14;101235.81;;;18.85;62.03
28921;BME280;16035;53.594;9.952;2022-10-16T10:21:15;101232.53;;;18.69;62.73
28921;BME280;16035;53.594;9.952;2022-10-16T10:23:23;101227.78;;;18.56;62.41
28921;BME280;16035;53.594;9.952;2022-10-16T10:25:45;101232.34;;;18.47;62.91
28921;BME280;16035;53.594;9.952;2022-10-16T10:32:23;101235.56;;;18.35;63.25
28921;BME280;16035;53.594;9.952;2022-10-16T10:34:51;101232.09;;;18.29;63.05
28921;BME280;16035;53.594;9.952;2022-10-16T10:37:42;101233.53;;;18.27;63.17
28921;BME280;16035;53.594;9.952;2022-10-16T10:39:43;101240.66;;;18.28;63.36
28921;BME280;16035;53.594;9.952;2022-10-16T10:44:21;101241.19;;;18.43;63.01
28921;BME280;16035;53.594;9.952;2022-10-16T10:46:33;101242.78;;;18.50;62.63
28921;BME280;16035;53.594;9.952;2022-10-16T10:48:42;101242.47;;;18.65;62.46
28921;BME280;16035;53.594;9.952;2022-10-16T10:51:01;101237.34;;;18.77;62.56
28921;BME280;16035;53.594;9.952;2022-10-16T10:58:45;101241.66;;;18.64;62.43
28921;BME280;16035;53.594;9.952;2022-10-16T11:05:40;101235.00;;;18.52;61.91
28921;BME280;16035;53.594;9.952;2022-10-16T11:08:03;101244.72;;;18.49;61.94
28921;BME280;16035;53.594;9.952;2022-10-16T11:10:14;101248.19;;;18.55;61.72
28921;BME280;16035;53.594;9.952;2022-10-16T11:12:20;101252.03;;;19.00;62.36
28921;BME280;16035;53.594;9.952;2022-10-16T11:14:30;101242.72;;;20.01;61.56
28921;BME280;16035;53.594;9.952;2022-10-16T11:17:19;101257.78;;;20.40;59.72
28921;BME280;16035;53.594;9.952;2022-10-16T11:19:25;101258.50;;;20.23;58.80
28921;BME280;16035;53.594;9.952;2022-10-16T11:21:32;101260.38;;;20.36;59.55
28921;BME280;16035;53.594;9.952;2022-10-16T11:25:43;101251.47;;;21.41;57.13
28921;BME280;16035;53.594;9.952;2022-10-16T11:27:44;101263.19;;;21.07;56.64
28921;BME280;16035;53.594;9.952;2022-10-16T11:29:58;101267.88;;;20.98;57.18